createdAt,value
2023-04-12T00:00:35.557Z,471.00
2023-04-12T00:01:35.617Z,471.00
2023-04-12T00:02:35.872Z,470.00
2023-04-12T00:03:35.901Z,470.00
2023-04-12T00:04:35.960Z,470.00
2023-04-12T00:05:35.835Z,471.00
2023-04-12T00:06:35.846Z,471.00
2023-04-12T00:07:35.945Z,467.00
2023-04-12T00:08:36.005Z,466.00
2023-04-12T00:09:36.006Z,466.00
2023-04-12T00:10:36.093Z,466.00
2023-04-12T00:11:36.138Z,465.00
2023-04-12T00:12:36.225Z,464.00
2023-04-12T00:13:36.231Z,465.00
2023-04-12T00:14:36.327Z,465.00
2023-04-12T00:15:36.407Z,468.00
2023-04-12T00:16:36.420Z,469.00
2023-04-12T00:17:36.538Z,469.00
2023-04-12T00:18:36.556Z,471.00
2023-04-12T00:19:36.590Z,471.00
2023-04-12T00:20:36.666Z,472.00
2023-04-12T00:21:36.686Z,472.00
2023-04-12T00:22:36.777Z,470.00
2023-04-12T00:23:36.892Z,466.00
2023-04-12T00:24:36.895Z,465.00
2023-04-12T00:25:36.943Z,466.00
2023-04-12T00:26:37.016Z,466.00
2023-04-12T00:27:37.042Z,468.00
2023-04-12T00:28:37.116Z,468.00
2023-04-12T00:29:37.190Z,468.00
2023-04-12T00:30:37.230Z,466.00
2023-04-12T00:31:37.383Z,466.00
2023-04-12T00:32:37.424Z,466.00
2023-04-12T00:33:37.400Z,466.00
2023-04-12T00:34:37.467Z,465.00
2023-04-12T00:35:37.553Z,464.00
2023-04-12T00:36:37.587Z,464.00
2023-04-12T00:37:37.632Z,463.00
2023-04-12T00:38:37.724Z,460.00
2023-04-12T00:39:37.715Z,461.00
2023-04-12T00:40:37.797Z,462.00
2023-04-12T00:41:37.826Z,463.00
2023-04-12T00:42:37.885Z,465.00
2023-04-12T00:43:37.923Z,464.00
2023-04-12T00:44:37.969Z,466.00
2023-04-12T00:45:38.059Z,467.00
2023-04-12T00:46:38.132Z,466.00
2023-04-12T00:47:38.249Z,465.00
2023-04-12T00:48:38.157Z,466.00
2023-04-12T00:49:38.243Z,468.00
2023-04-12T00:50:38.266Z,467.00
2023-04-12T00:51:38.331Z,467.00
2023-04-12T00:52:38.406Z,465.00
2023-04-12T00:53:38.478Z,461.00
2023-04-12T00:54:38.499Z,461.00
2023-04-12T00:55:38.551Z,461.00
2023-04-12T00:56:38.643Z,460.00
2023-04-12T00:57:38.671Z,459.00
2023-04-12T00:58:38.801Z,459.00
2023-04-12T00:59:38.801Z,460.00
2023-04-12T01:00:38.851Z,460.00
2023-04-12T01:01:38.961Z,461.00
2023-04-12T01:02:39.177Z,462.00
2023-04-12T01:03:39.233Z,460.00
2023-04-12T01:04:39.097Z,461.00
2023-04-12T01:05:39.160Z,460.00
2023-04-12T01:06:39.245Z,461.00
2023-04-12T01:07:39.306Z,460.00
2023-04-12T01:08:39.310Z,460.00
2023-04-12T01:09:39.377Z,459.00
2023-04-12T01:10:39.415Z,460.00
2023-04-12T01:11:39.476Z,460.00
2023-04-12T01:12:39.536Z,459.00
2023-04-12T01:13:39.585Z,458.00
2023-04-12T01:14:39.656Z,460.00
2023-04-12T01:15:39.728Z,461.00
2023-04-12T01:16:39.870Z,463.00
2023-04-12T01:17:39.955Z,460.00
2023-04-12T01:18:39.941Z,462.00
2023-04-12T01:19:39.970Z,460.00
2023-04-12T01:20:40.042Z,458.00
2023-04-12T01:21:40.063Z,458.00
2023-04-12T01:22:40.173Z,455.00
2023-04-12T01:23:40.199Z,456.00
2023-04-12T01:24:40.255Z,456.00
2023-04-12T01:25:40.283Z,458.00
2023-04-12T01:26:40.366Z,458.00
2023-04-12T01:27:40.444Z,458.00
2023-04-12T01:28:40.497Z,458.00
2023-04-12T01:29:40.554Z,458.00
2023-04-12T01:30:40.578Z,457.00
2023-04-12T01:31:40.657Z,455.00
2023-04-12T01:32:40.742Z,456.00
2023-04-12T01:33:40.778Z,456.00
2023-04-12T01:34:40.831Z,456.00
2023-04-12T01:35:40.888Z,456.00
2023-04-12T01:36:40.933Z,456.00
2023-04-12T01:37:40.996Z,456.00
2023-04-12T01:38:41.077Z,457.00
2023-04-12T01:39:41.122Z,457.00
2023-04-12T01:40:41.174Z,458.00
2023-04-12T01:41:41.240Z,456.00
2023-04-12T01:42:41.354Z,455.00
2023-04-12T01:43:41.417Z,454.00
2023-04-12T01:44:41.461Z,455.00
2023-04-12T01:45:41.531Z,455.00
2023-04-12T01:46:41.570Z,455.00
2023-04-12T01:47:41.705Z,456.00
2023-04-12T01:48:41.708Z,455.00
2023-04-12T01:49:41.745Z,458.00
2023-04-12T01:50:41.827Z,459.00
2023-04-12T01:51:41.857Z,458.00
2023-04-12T01:52:41.935Z,459.00
2023-04-12T01:53:41.970Z,456.00
2023-04-12T01:54:42.002Z,456.00
2023-04-12T01:55:42.084Z,455.00
2023-04-12T01:56:42.172Z,455.00
2023-04-12T01:57:42.208Z,457.00
2023-04-12T01:58:42.285Z,454.00
2023-04-12T01:59:42.335Z,453.00
2023-04-12T02:00:42.334Z,454.00
2023-04-12T02:01:42.520Z,456.00
2023-04-12T02:02:42.583Z,458.00
2023-04-12T02:03:42.838Z,459.00
2023-04-12T02:04:42.600Z,459.00
2023-04-12T02:05:42.631Z,461.00
2023-04-12T02:06:42.720Z,462.00
2023-04-12T02:07:42.790Z,461.00
2023-04-12T02:08:42.826Z,459.00
2023-04-12T02:09:42.909Z,458.00
2023-04-12T02:10:42.885Z,460.00
2023-04-12T02:11:42.942Z,458.00
2023-04-12T02:12:43.025Z,456.00
2023-04-12T02:13:43.095Z,454.00
2023-04-12T02:14:43.123Z,456.00
2023-04-12T02:15:43.215Z,455.00
2023-04-12T02:16:43.267Z,455.00
2023-04-12T02:17:43.338Z,456.00
2023-04-12T02:18:43.372Z,455.00
2023-04-12T02:19:43.453Z,453.00
2023-04-12T02:20:43.475Z,448.00
2023-04-12T02:21:43.529Z,446.00
2023-04-12T02:22:43.564Z,447.00
2023-04-12T02:23:43.604Z,448.00
2023-04-12T02:24:43.624Z,450.00
2023-04-12T02:25:43.695Z,450.00
2023-04-12T02:26:43.749Z,447.00
2023-04-12T02:27:43.815Z,447.00
2023-04-12T02:28:43.849Z,449.00
2023-04-12T02:29:43.886Z,451.00
2023-04-12T02:30:44.009Z,449.00
2023-04-12T02:31:44.045Z,448.00
2023-04-12T02:32:44.229Z,449.00
2023-04-12T02:33:44.132Z,449.00
2023-04-12T02:34:44.179Z,449.00
2023-04-12T02:35:44.287Z,449.00
2023-04-12T02:36:44.287Z,450.00
2023-04-12T02:37:44.356Z,449.00
2023-04-12T02:38:44.390Z,448.00
2023-04-12T02:39:44.475Z,447.00
2023-04-12T02:40:44.550Z,447.00
2023-04-12T02:41:44.574Z,448.00
2023-04-12T02:42:44.687Z,447.00
2023-04-12T02:43:44.687Z,445.00
2023-04-12T02:44:44.725Z,443.00
2023-04-12T02:45:44.798Z,444.00
2023-04-12T02:46:44.856Z,447.00
2023-04-12T02:47:45.001Z,449.00
2023-04-12T02:48:44.965Z,450.00
2023-04-12T02:49:44.993Z,451.00
2023-04-12T02:50:45.092Z,453.00
2023-04-12T02:51:45.128Z,454.00
2023-04-12T02:52:45.396Z,453.00
2023-04-12T02:53:45.164Z,454.00
2023-04-12T02:54:45.253Z,456.00
2023-04-12T02:55:45.324Z,455.00
2023-04-12T02:56:45.321Z,452.00
2023-04-12T02:57:45.406Z,453.00
2023-04-12T02:58:45.468Z,452.00
2023-04-12T02:59:45.493Z,454.00
2023-04-12T03:00:45.538Z,456.00
2023-04-12T03:01:45.686Z,457.00
2023-04-12T03:02:45.753Z,457.00
2023-04-12T03:03:45.750Z,458.00
2023-04-12T03:04:45.729Z,458.00
2023-04-12T03:05:45.748Z,456.00
2023-04-12T03:06:45.791Z,457.00
2023-04-12T03:07:45.872Z,457.00
2023-04-12T03:08:45.957Z,457.00
2023-04-12T03:09:45.950Z,458.00
2023-04-12T03:10:45.998Z,459.00
2023-04-12T03:11:46.007Z,458.00
2023-04-12T03:12:46.045Z,457.00
2023-04-12T03:13:46.108Z,457.00
2023-04-12T03:14:46.202Z,455.00
2023-04-12T03:15:46.260Z,453.00
2023-04-12T03:16:46.294Z,453.00
2023-04-12T03:17:46.330Z,452.00
2023-04-12T03:18:46.439Z,453.00
2023-04-12T03:19:46.485Z,454.00
2023-04-12T03:20:47.772Z,455.00
2023-04-12T03:21:46.535Z,457.00
2023-04-12T03:22:46.601Z,456.00
2023-04-12T03:23:46.647Z,456.00
2023-04-12T03:24:46.662Z,455.00
2023-04-12T03:25:46.780Z,455.00
2023-04-12T03:26:46.803Z,454.00
2023-04-12T03:27:46.863Z,455.00
2023-04-12T03:28:46.911Z,456.00
2023-04-12T03:29:47.761Z,454.00
2023-04-12T03:30:46.977Z,454.00
2023-04-12T03:31:47.022Z,454.00
2023-04-12T03:32:47.187Z,455.00
2023-04-12T03:33:47.137Z,453.00
2023-04-12T03:34:47.181Z,451.00
2023-04-12T03:35:47.248Z,452.00
2023-04-12T03:36:47.276Z,452.00
2023-04-12T03:37:47.323Z,452.00
2023-04-12T03:38:47.328Z,451.00
2023-04-12T03:39:47.399Z,452.00
2023-04-12T03:40:47.426Z,453.00
2023-04-12T03:41:47.501Z,453.00
2023-04-12T03:42:47.549Z,452.00
2023-04-12T03:43:47.648Z,452.00
2023-04-12T03:44:47.613Z,449.00
2023-04-12T03:45:47.660Z,448.00
2023-04-12T03:46:47.753Z,447.00
2023-04-12T03:47:47.843Z,445.00
2023-04-12T03:48:47.805Z,445.00
2023-04-12T03:50:01.789Z,445.00
2023-04-12T03:50:48.834Z,445.00
2023-04-12T03:51:47.806Z,444.00
2023-04-12T03:52:47.838Z,447.00
2023-04-12T03:53:47.822Z,446.00
2023-04-12T03:54:47.843Z,446.00
2023-04-12T03:55:47.851Z,446.00
2023-04-12T03:56:47.813Z,448.00
2023-04-12T03:57:47.792Z,448.00
2023-04-12T03:58:47.826Z,448.00
2023-04-12T03:59:47.772Z,448.00
2023-04-12T04:00:47.780Z,448.00
2023-04-12T04:01:47.884Z,449.00
2023-04-12T04:02:47.956Z,448.00
2023-04-12T04:03:48.203Z,448.00
2023-04-12T04:04:48.015Z,445.00
2023-04-12T04:05:48.055Z,445.00
2023-04-12T04:06:48.100Z,446.00
2023-04-12T04:07:48.164Z,445.00
2023-04-12T04:08:48.239Z,445.00
2023-04-12T04:09:48.251Z,446.00
2023-04-12T04:10:48.307Z,446.00
2023-04-12T04:11:48.379Z,445.00
2023-04-12T04:12:48.422Z,447.00
2023-04-12T04:13:48.487Z,448.00
2023-04-12T04:14:48.511Z,448.00
2023-04-12T04:15:48.567Z,450.00
2023-04-12T04:16:48.670Z,449.00
2023-04-12T04:17:48.699Z,449.00
2023-04-12T04:18:48.699Z,450.00
2023-04-12T04:19:48.732Z,450.00
2023-04-12T04:20:48.789Z,450.00
2023-04-12T04:21:48.893Z,449.00
2023-04-12T04:22:48.924Z,452.00
2023-04-12T04:23:48.953Z,452.00
2023-04-12T04:24:49.071Z,451.00
2023-04-12T04:25:49.121Z,448.00
2023-04-12T04:26:49.139Z,445.00
2023-04-12T04:27:49.231Z,445.00
2023-04-12T04:28:49.238Z,444.00
2023-04-12T04:29:49.285Z,446.00
2023-04-12T04:30:49.306Z,447.00
2023-04-12T04:31:49.437Z,449.00
2023-04-12T04:32:49.419Z,448.00
2023-04-12T04:33:49.450Z,447.00
2023-04-12T04:34:49.512Z,446.00
2023-04-12T04:35:49.645Z,448.00
2023-04-12T04:36:49.624Z,448.00
2023-04-12T04:37:49.715Z,447.00
2023-04-12T04:38:49.752Z,449.00
2023-04-12T04:39:49.788Z,451.00
2023-04-12T04:40:49.832Z,453.00
2023-04-12T04:41:49.862Z,455.00
2023-04-12T04:42:49.938Z,454.00
2023-04-12T04:43:50.025Z,451.00
2023-04-12T04:44:50.069Z,449.00
2023-04-12T04:45:50.253Z,449.00
2023-04-12T04:46:50.157Z,448.00
2023-04-12T04:47:50.284Z,448.00
2023-04-12T04:48:50.293Z,448.00
2023-04-12T04:49:50.325Z,448.00
2023-04-12T04:50:50.390Z,450.00
2023-04-12T04:51:50.435Z,451.00
2023-04-12T04:52:50.493Z,451.00
2023-04-12T04:53:50.555Z,451.00
2023-04-12T04:54:50.630Z,449.00
2023-04-12T04:55:50.659Z,447.00
2023-04-12T04:56:50.687Z,449.00
2023-04-12T04:57:50.775Z,450.00
2023-04-12T04:58:50.813Z,451.00
2023-04-12T04:59:50.865Z,452.00
2023-04-12T05:00:57.948Z,454.00
2023-04-12T05:01:51.034Z,452.00
2023-04-12T05:02:51.033Z,452.00
2023-04-12T05:03:51.039Z,453.00
2023-04-12T05:04:50.923Z,454.00
2023-04-12T05:05:50.909Z,455.00
2023-04-12T05:06:50.936Z,455.00
2023-04-12T05:07:50.917Z,453.00
2023-04-12T05:08:50.939Z,452.00
2023-04-12T05:09:50.910Z,452.00
2023-04-12T05:10:50.904Z,453.00
2023-04-12T05:11:50.923Z,453.00
2023-04-12T05:12:50.913Z,456.00
2023-04-12T05:13:50.935Z,455.00
2023-04-12T05:14:51.894Z,451.00
2023-04-12T05:15:50.962Z,453.00
2023-04-12T05:16:51.008Z,453.00
2023-04-12T05:17:50.886Z,453.00
2023-04-12T05:18:50.923Z,453.00
2023-04-12T05:19:50.870Z,451.00
2023-04-12T05:20:50.900Z,450.00
2023-04-12T05:21:50.890Z,448.00
2023-04-12T05:22:50.882Z,447.00
2023-04-12T05:23:50.921Z,447.00
2023-04-12T05:24:50.863Z,446.00
2023-04-12T05:25:50.863Z,446.00
2023-04-12T05:26:50.853Z,446.00
2023-04-12T05:27:52.209Z,448.00
2023-04-12T05:28:50.853Z,447.00
2023-04-12T05:29:50.899Z,448.00
2023-04-12T05:30:51.005Z,447.00
2023-04-12T05:31:51.045Z,451.00
2023-04-12T05:32:51.108Z,452.00
2023-04-12T05:33:51.326Z,453.00
2023-04-12T05:34:51.192Z,458.00
2023-04-12T05:35:51.250Z,478.00
2023-04-12T05:36:51.256Z,498.00
2023-04-12T05:37:51.314Z,529.00
2023-04-12T05:38:51.848Z,531.00
2023-04-12T05:39:51.423Z,532.00
2023-04-12T05:40:51.556Z,536.00
2023-04-12T05:41:51.561Z,542.00
2023-04-12T05:42:51.545Z,548.00
2023-04-12T05:43:51.832Z,609.00
2023-04-12T05:44:51.613Z,622.00
2023-04-12T05:45:58.673Z,643.00
2023-04-12T05:46:51.700Z,641.00
2023-04-12T05:47:51.734Z,625.00
2023-04-12T05:48:51.913Z,621.00
2023-04-12T05:49:51.754Z,608.00
2023-04-12T05:50:51.753Z,588.00
2023-04-12T05:51:51.736Z,570.00
2023-04-12T05:52:51.720Z,566.00
2023-04-12T05:53:51.703Z,562.00
2023-04-12T05:54:51.868Z,547.00
2023-04-12T05:55:51.772Z,543.00
2023-04-12T05:56:51.729Z,536.00
2023-04-12T05:57:51.714Z,529.00
2023-04-12T05:58:51.759Z,522.00
2023-04-12T05:59:51.769Z,519.00
2023-04-12T06:00:51.763Z,512.00
2023-04-12T06:01:51.789Z,511.00
2023-04-12T06:02:52.510Z,507.00
2023-04-12T06:03:51.948Z,500.00
2023-04-12T06:04:52.110Z,493.00
2023-04-12T06:05:51.781Z,490.00
2023-04-12T06:06:51.851Z,490.00
2023-04-12T06:07:51.743Z,487.00
2023-04-12T06:08:51.834Z,485.00
2023-04-12T06:09:51.853Z,482.00
2023-04-12T06:10:51.781Z,477.00
2023-04-12T06:11:51.820Z,473.00
2023-04-12T06:12:51.777Z,472.00
2023-04-12T06:13:51.802Z,471.00
2023-04-12T06:14:51.817Z,469.00
2023-04-12T06:15:51.932Z,468.00
2023-04-12T06:16:51.801Z,466.00
2023-04-12T06:17:51.875Z,464.00
2023-04-12T06:18:51.814Z,463.00
2023-04-12T06:19:51.806Z,462.00
2023-04-12T06:20:51.829Z,463.00
2023-04-12T06:21:51.896Z,461.00
2023-04-12T06:22:51.864Z,458.00
2023-04-12T06:23:51.866Z,456.00
2023-04-12T06:24:51.849Z,456.00
2023-04-12T06:25:51.871Z,453.00
2023-04-12T06:26:51.893Z,452.00
2023-04-12T06:27:52.864Z,448.00
2023-04-12T06:28:52.116Z,449.00
2023-04-12T06:29:52.599Z,448.00
2023-04-12T06:30:52.526Z,446.00
2023-04-12T06:31:52.464Z,445.00
2023-04-12T06:32:52.178Z,447.00
2023-04-12T06:33:51.944Z,445.00
2023-04-12T06:34:51.985Z,444.00
2023-04-12T06:35:51.959Z,444.00
2023-04-12T06:36:52.022Z,445.00
2023-04-12T06:37:52.003Z,504.00
2023-04-12T06:38:52.023Z,551.00
2023-04-12T06:39:52.539Z,559.00
2023-04-12T06:40:51.984Z,580.00
2023-04-12T06:41:52.036Z,588.00
2023-04-12T06:42:52.094Z,595.00
2023-04-12T06:43:52.094Z,613.00
2023-04-12T06:44:52.161Z,612.00
2023-04-12T06:45:52.160Z,647.00
2023-04-12T06:46:52.191Z,633.00
2023-04-12T06:47:52.200Z,619.00
2023-04-12T06:48:52.379Z,585.00
2023-04-12T06:49:54.126Z,579.00
2023-04-12T06:50:52.302Z,578.00
2023-04-12T06:51:52.259Z,572.00
2023-04-12T06:52:52.273Z,565.00
2023-04-12T06:53:52.277Z,586.00
2023-04-12T06:54:52.339Z,688.00
2023-04-12T06:55:52.323Z,720.00
2023-04-12T06:56:52.343Z,770.00
2023-04-12T06:57:52.356Z,760.00
2023-04-12T06:58:52.350Z,765.00
2023-04-12T06:59:52.369Z,769.00
2023-04-12T07:00:52.400Z,776.00
2023-04-12T07:01:52.423Z,817.00
2023-04-12T07:02:52.808Z,807.00
2023-04-12T07:03:52.557Z,787.00
2023-04-12T07:04:52.428Z,760.00
2023-04-12T07:05:52.426Z,764.00
2023-04-12T07:06:52.461Z,769.00
2023-04-12T07:07:52.474Z,770.00
2023-04-12T07:08:52.494Z,772.00
2023-04-12T07:09:52.561Z,776.00
2023-04-12T07:10:52.547Z,776.00
2023-04-12T07:11:52.550Z,783.00
2023-04-12T07:12:52.489Z,799.00
2023-04-12T07:13:52.504Z,806.00
2023-04-12T07:14:52.576Z,807.00
2023-04-12T07:15:52.556Z,808.00
2023-04-12T07:16:52.743Z,804.00
2023-04-12T07:17:52.634Z,803.00
2023-04-12T07:18:52.604Z,800.00
2023-04-12T07:19:52.596Z,802.00
2023-04-12T07:20:52.628Z,797.00
2023-04-12T07:21:52.585Z,801.00
2023-04-12T07:22:52.586Z,803.00
2023-04-12T07:23:52.642Z,798.00
2023-04-12T07:24:52.651Z,796.00
2023-04-12T07:25:52.659Z,793.00
2023-04-12T07:26:52.664Z,792.00
2023-04-12T07:27:52.654Z,788.00
2023-04-12T07:28:52.677Z,784.00
2023-04-12T07:29:52.696Z,787.00
2023-04-12T07:30:52.707Z,788.00
2023-04-12T07:31:52.676Z,791.00
2023-04-12T07:32:52.733Z,804.00
2023-04-12T07:33:52.862Z,819.00
2023-04-12T07:34:52.843Z,853.00
2023-04-12T07:35:52.805Z,821.00
2023-04-12T07:36:52.732Z,836.00
2023-04-12T07:37:52.904Z,856.00
2023-04-12T07:38:52.746Z,862.00
2023-04-12T07:39:52.771Z,958.00
2023-04-12T07:40:52.714Z,962.00
2023-04-12T07:41:52.790Z,967.00
2023-04-12T07:42:52.728Z,971.00
2023-04-12T07:43:52.697Z,969.00
2023-04-12T07:44:52.742Z,987.00
2023-04-12T07:45:52.763Z,1015.00
2023-04-12T07:46:52.733Z,1043.00
2023-04-12T07:47:52.849Z,1055.00
2023-04-12T07:48:52.759Z,1131.00
2023-04-12T07:49:52.861Z,1153.00
2023-04-12T07:50:52.717Z,1180.00
2023-04-12T07:51:52.825Z,987.00
2023-04-12T07:52:52.726Z,880.00
2023-04-12T07:53:52.752Z,847.00
2023-04-12T07:54:52.759Z,780.00
2023-04-12T07:55:52.760Z,767.00
2023-04-12T07:56:52.820Z,748.00
2023-04-12T07:57:52.857Z,717.00
2023-04-12T07:58:52.924Z,693.00
2023-04-12T07:59:53.359Z,659.00
2023-04-12T08:00:52.962Z,651.00
2023-04-12T08:01:52.970Z,644.00
2023-04-12T08:02:53.094Z,638.00
2023-04-12T08:03:53.238Z,635.00
2023-04-12T08:04:53.127Z,644.00
2023-04-12T08:05:53.317Z,687.00
2023-04-12T08:06:53.241Z,699.00
2023-04-12T08:07:53.248Z,720.00
2023-04-12T08:08:53.295Z,718.00
2023-04-12T08:09:53.376Z,717.00
2023-04-12T08:10:53.341Z,730.00
2023-04-12T08:11:53.377Z,743.00
2023-04-12T08:12:53.502Z,744.00
2023-04-12T08:13:53.500Z,753.00
2023-04-12T08:14:53.479Z,754.00
2023-04-12T08:15:53.594Z,757.00
2023-04-12T08:16:53.555Z,754.00
2023-04-12T08:17:53.618Z,760.00
2023-04-12T08:18:53.643Z,766.00
2023-04-12T08:19:53.673Z,771.00
2023-04-12T08:20:53.673Z,774.00
2023-04-12T08:21:53.713Z,777.00
2023-04-12T08:22:53.759Z,777.00
2023-04-12T08:23:53.820Z,786.00
2023-04-12T08:24:53.874Z,787.00
2023-04-12T08:25:53.874Z,789.00
2023-04-12T08:26:53.881Z,785.00
2023-04-12T08:27:53.954Z,783.00
2023-04-12T08:28:54.014Z,770.00
2023-04-12T08:29:54.412Z,767.00
2023-04-12T08:30:54.081Z,777.00
2023-04-12T08:31:54.079Z,781.00
2023-04-12T08:32:54.210Z,788.00
2023-04-12T08:33:54.150Z,734.00
2023-04-12T08:34:54.222Z,726.00
2023-04-12T08:35:54.465Z,734.00
2023-04-12T08:36:54.224Z,780.00
2023-04-12T08:37:54.280Z,781.00
2023-04-12T08:38:54.285Z,788.00
2023-04-12T08:39:54.314Z,832.00
2023-04-12T08:40:54.323Z,816.00
2023-04-12T08:41:54.467Z,822.00
2023-04-12T08:42:56.013Z,958.00
2023-04-12T08:43:54.413Z,925.00
2023-04-12T08:44:54.852Z,914.00
2023-04-12T08:45:54.493Z,944.00
2023-04-12T08:46:54.612Z,806.00
2023-04-12T08:47:54.619Z,818.00
2023-04-12T08:48:54.599Z,834.00
2023-04-12T08:49:54.661Z,890.00
2023-04-12T08:50:54.726Z,898.00
2023-04-12T08:51:54.739Z,964.00
2023-04-12T08:52:54.834Z,984.00
2023-04-12T08:53:54.832Z,994.00
2023-04-12T08:54:54.882Z,996.00
2023-04-12T08:55:54.958Z,994.00
2023-04-12T08:56:55.020Z,999.00
2023-04-12T08:57:54.997Z,1004.00
2023-04-12T08:58:55.066Z,1009.00
2023-04-12T08:59:55.138Z,1012.00
2023-04-12T09:00:55.401Z,1020.00
2023-04-12T09:01:55.344Z,1024.00
2023-04-12T09:02:55.395Z,1052.00
2023-04-12T09:03:55.742Z,1057.00
2023-04-12T09:04:55.460Z,1064.00
2023-04-12T09:05:55.413Z,1071.00
2023-04-12T09:06:55.441Z,1075.00
2023-04-12T09:07:55.499Z,1085.00
2023-04-12T09:08:55.516Z,1098.00
2023-04-12T09:09:55.521Z,1107.00
2023-04-12T09:10:55.943Z,1115.00
2023-04-12T09:11:55.578Z,1123.00
2023-04-12T09:12:55.593Z,1130.00
2023-04-12T09:13:55.795Z,1141.00
2023-04-12T09:14:55.649Z,1159.00
2023-04-12T09:15:55.675Z,1160.00
2023-04-12T09:16:55.730Z,1167.00
2023-04-12T09:17:55.777Z,1171.00
2023-04-12T09:18:55.966Z,1189.00
2023-04-12T09:19:55.799Z,1205.00
2023-04-12T09:20:55.826Z,1216.00
2023-04-12T09:21:55.852Z,1222.00
2023-04-12T09:22:55.873Z,1233.00
2023-04-12T09:23:56.080Z,1244.00
2023-04-12T09:24:55.856Z,1248.00
2023-04-12T09:25:56.446Z,1254.00
2023-04-12T09:26:55.910Z,1263.00
2023-04-12T09:27:55.950Z,1265.00
2023-04-12T09:28:55.910Z,1268.00
2023-04-12T09:29:56.301Z,1276.00
2023-04-12T09:30:55.996Z,1282.00
2023-04-12T09:31:56.032Z,1292.00
2023-04-12T09:32:56.015Z,1296.00
2023-04-12T09:33:56.168Z,1297.00
2023-04-12T09:34:56.013Z,1309.00
2023-04-12T09:35:56.028Z,1316.00
2023-04-12T09:36:56.082Z,1319.00
2023-04-12T09:37:56.077Z,1332.00
2023-04-12T09:38:56.049Z,1345.00
2023-04-12T09:39:56.068Z,1349.00
2023-04-12T09:40:56.450Z,1352.00
2023-04-12T09:41:56.095Z,1353.00
2023-04-12T09:42:56.112Z,1351.00
2023-04-12T09:43:56.688Z,1008.00
2023-04-12T09:44:56.127Z,992.00
2023-04-12T09:45:56.087Z,978.00
2023-04-12T09:46:56.281Z,968.00
2023-04-12T09:47:56.139Z,942.00
2023-04-12T09:48:56.160Z,1038.00
2023-04-12T09:49:56.139Z,1036.00
2023-04-12T09:50:56.153Z,962.00
2023-04-12T09:51:57.593Z,1016.00
2023-04-12T09:52:56.265Z,1008.00
2023-04-12T09:53:56.447Z,1009.00
2023-04-12T09:54:56.196Z,982.00
2023-04-12T09:55:56.265Z,927.00
2023-04-12T09:56:56.362Z,936.00
2023-04-12T09:57:56.188Z,876.00
2023-04-12T09:58:56.446Z,847.00
2023-04-12T09:59:56.288Z,841.00
2023-04-12T10:00:56.179Z,796.00
2023-04-12T10:01:56.341Z,809.00
2023-04-12T10:02:56.508Z,791.00
2023-04-12T10:03:56.402Z,697.00
2023-04-12T10:04:56.199Z,764.00
2023-04-12T10:05:57.468Z,669.00
2023-04-12T10:06:56.493Z,693.00
2023-04-12T10:07:56.076Z,677.00
2023-04-12T10:08:56.299Z,669.00
2023-04-12T10:09:56.045Z,605.00
2023-04-12T10:10:56.046Z,612.00
2023-04-12T10:11:55.981Z,638.00
2023-04-12T10:12:56.007Z,602.00
2023-04-12T10:13:56.179Z,597.00
2023-04-12T10:14:55.986Z,601.00
2023-04-12T10:15:56.029Z,598.00
2023-04-12T10:16:55.989Z,595.00
2023-04-12T10:17:56.033Z,593.00
2023-04-12T10:18:56.285Z,543.00
2023-04-12T10:19:55.960Z,557.00
2023-04-12T10:20:56.504Z,559.00
2023-04-12T10:21:55.929Z,560.00
2023-04-12T10:22:55.928Z,561.00
2023-04-12T10:23:55.931Z,558.00
2023-04-12T10:24:55.912Z,548.00
2023-04-12T10:25:55.936Z,533.00
2023-04-12T10:26:56.021Z,524.00
2023-04-12T10:27:56.943Z,526.00
2023-04-12T10:28:56.265Z,532.00
2023-04-12T10:29:56.109Z,533.00
2023-04-12T10:30:56.480Z,534.00
2023-04-12T10:31:56.278Z,534.00
2023-04-12T10:32:56.342Z,537.00
2023-04-12T10:33:56.286Z,538.00
2023-04-12T10:34:56.439Z,538.00
2023-04-12T10:35:56.641Z,536.00
2023-04-12T10:36:56.427Z,522.00
2023-04-12T10:37:56.459Z,506.00
2023-04-12T10:38:56.959Z,503.00
2023-04-12T10:39:56.553Z,502.00
2023-04-12T10:40:56.968Z,495.00
2023-04-12T10:41:56.680Z,493.00
2023-04-12T10:42:56.724Z,493.00
2023-04-12T10:43:56.806Z,488.00
2023-04-12T10:44:58.635Z,487.00
2023-04-12T10:45:56.806Z,483.00
2023-04-12T10:46:56.822Z,478.00
2023-04-12T10:47:57.020Z,472.00
2023-04-12T10:48:57.100Z,470.00
2023-04-12T10:49:56.832Z,467.00
2023-04-12T10:50:56.878Z,466.00
2023-04-12T10:51:56.836Z,461.00
2023-04-12T10:52:56.808Z,461.00
2023-04-12T10:53:56.805Z,456.00
2023-04-12T10:54:56.808Z,454.00
2023-04-12T10:55:56.840Z,453.00
2023-04-12T10:56:57.434Z,450.00
2023-04-12T10:57:56.807Z,447.00
2023-04-12T10:58:57.213Z,445.00
2023-04-12T10:59:57.039Z,450.00
2023-04-12T11:00:56.980Z,448.00
2023-04-12T11:01:56.930Z,447.00
2023-04-12T11:02:57.066Z,445.00
2023-04-12T11:03:57.154Z,443.00
2023-04-12T11:04:56.981Z,441.00
2023-04-12T11:05:56.880Z,438.00
2023-04-12T11:06:59.188Z,436.00
2023-04-12T11:07:56.886Z,435.00
2023-04-12T11:08:57.269Z,434.00
2023-04-12T11:09:56.920Z,432.00
2023-04-12T11:10:57.019Z,433.00
2023-04-12T11:11:56.976Z,431.00
2023-04-12T11:12:56.949Z,430.00
2023-04-12T11:13:56.990Z,429.00
2023-04-12T11:14:56.987Z,429.00
2023-04-12T11:15:57.472Z,427.00
2023-04-12T11:16:57.039Z,425.00
2023-04-12T11:17:57.132Z,423.00
2023-04-12T11:18:57.248Z,421.00
2023-04-12T11:19:57.025Z,501.00
2023-04-12T11:20:57.033Z,523.00
2023-04-12T11:21:57.456Z,535.00
2023-04-12T11:22:57.091Z,535.00
2023-04-12T11:23:57.050Z,529.00
2023-04-12T11:24:57.014Z,535.00
2023-04-12T11:25:57.072Z,547.00
2023-04-12T11:26:57.428Z,560.00
2023-04-12T11:27:57.082Z,565.00
2023-04-12T11:28:57.320Z,568.00
2023-04-12T11:29:57.092Z,571.00
2023-04-12T11:30:57.836Z,572.00
2023-04-12T11:31:57.545Z,574.00
2023-04-12T11:32:57.180Z,571.00
2023-04-12T11:33:57.144Z,569.00
2023-04-12T11:34:57.149Z,573.00
2023-04-12T11:35:57.136Z,573.00
2023-04-12T11:36:57.447Z,575.00
2023-04-12T11:37:57.087Z,576.00
2023-04-12T11:38:57.352Z,575.00
2023-04-12T11:39:57.109Z,575.00
2023-04-12T11:41:51.019Z,573.00
2023-04-12T11:42:51.001Z,577.00
2023-04-12T11:43:51.053Z,574.00
2023-04-12T11:44:56.089Z,571.00
2023-04-12T11:45:52.105Z,568.00
2023-04-12T11:46:51.155Z,564.00
2023-04-12T11:47:51.154Z,564.00
2023-04-12T11:48:51.116Z,566.00
2023-04-12T11:49:51.142Z,566.00
2023-04-12T11:50:59.936Z,570.00
2023-04-12T11:51:52.170Z,570.00
2023-04-12T11:52:51.226Z,575.00
2023-04-12T11:53:51.195Z,575.00
2023-04-12T11:54:51.234Z,575.00
2023-04-12T11:55:51.242Z,575.00
2023-04-12T11:56:51.250Z,573.00
2023-04-12T11:57:51.258Z,573.00
2023-04-12T11:58:51.265Z,574.00
2023-04-12T11:59:51.315Z,573.00
2023-04-12T12:00:51.309Z,573.00
2023-04-12T12:01:51.423Z,570.00
2023-04-12T12:03:06.659Z,569.00
2023-04-12T12:03:52.551Z,568.00
2023-04-12T12:04:51.916Z,566.00
2023-04-12T12:05:51.577Z,565.00
2023-04-12T12:06:52.375Z,567.00
2023-04-12T12:07:51.474Z,566.00
2023-04-12T12:08:51.454Z,564.00
2023-04-12T12:09:51.457Z,565.00
2023-04-12T12:11:51.501Z,568.00
2023-04-12T12:12:51.552Z,567.00
2023-04-12T12:13:51.541Z,566.00
2023-04-12T12:14:51.548Z,564.00
2023-04-12T12:15:51.568Z,566.00
2023-04-12T12:16:51.563Z,566.00
2023-04-12T12:17:51.639Z,565.00
2023-04-12T12:18:52.908Z,566.00
2023-04-12T12:19:51.633Z,566.00
2023-04-12T12:20:51.641Z,566.00
2023-04-12T12:21:51.629Z,563.00
2023-04-12T12:22:51.668Z,563.00
2023-04-12T12:23:51.709Z,560.00
2023-04-12T12:24:51.769Z,561.00
2023-04-12T12:25:57.836Z,564.00
2023-04-12T12:26:52.782Z,564.00
2023-04-12T12:27:51.836Z,563.00
2023-04-12T12:28:51.852Z,566.00